createdAt,value
2022-09-15T00:00:22.468Z,15.15
2022-09-15T00:02:51.051Z,13.52
2022-09-15T00:05:18.845Z,14.23
2022-09-15T00:07:46.971Z,14.88
2022-09-15T00:10:16.591Z,18.85
2022-09-15T00:12:44.908Z,15.35
2022-09-15T00:15:13.712Z,15.15
2022-09-15T00:17:41.689Z,15.40
2022-09-15T00:20:10.636Z,14.60
2022-09-15T00:22:38.404Z,17.33
2022-09-15T00:25:06.431Z,18.77
2022-09-15T00:27:35.617Z,16.25
2022-09-15T00:30:04.650Z,18.48
2022-09-15T00:32:32.881Z,14.25
2022-09-15T00:35:00.590Z,14.88
2022-09-15T00:37:28.201Z,12.73
2022-09-15T00:39:55.934Z,16.13
2022-09-15T00:42:24.043Z,15.82
2022-09-15T00:44:56.229Z,15.10
2022-09-15T00:47:26.810Z,17.27
2022-09-15T00:49:59.341Z,14.27
2022-09-15T00:52:34.570Z,14.93
2022-09-15T00:55:06.913Z,15.77
2022-09-15T00:57:45.487Z,15.07
2022-09-15T01:00:17.912Z,16.85
2022-09-15T01:02:47.102Z,23.23
2022-09-15T01:05:17.098Z,13.30
2022-09-15T01:07:52.072Z,14.90
2022-09-15T01:10:24.811Z,14.25
2022-09-15T01:12:54.829Z,14.45
2022-09-15T01:15:28.659Z,15.57
2022-09-15T01:18:12.988Z,13.50
2022-09-15T01:21:01.500Z,14.27
2022-09-15T01:24:01.707Z,14.85
2022-09-15T01:26:58.094Z,12.40
2022-09-15T01:29:59.298Z,15.15
2022-09-15T01:32:34.739Z,12.80
2022-09-15T01:35:10.389Z,14.85
2022-09-15T01:37:43.933Z,15.55
2022-09-15T01:40:15.209Z,14.25
2022-09-15T01:45:17.974Z,21.20
2022-09-15T01:47:47.827Z,15.32
2022-09-15T01:50:20.186Z,14.00
2022-09-15T01:52:52.388Z,15.52
2022-09-15T01:55:26.954Z,13.43
2022-09-15T01:57:54.495Z,15.23
2022-09-15T02:00:23.436Z,15.95
2022-09-15T02:02:56.250Z,14.88
2022-09-15T02:05:28.437Z,17.50
2022-09-15T02:08:04.559Z,14.98
2022-09-15T02:10:38.880Z,17.17
2022-09-15T02:13:12.508Z,14.02
2022-09-15T02:15:45.368Z,12.77
2022-09-15T02:18:17.055Z,18.48
2022-09-15T02:20:49.999Z,15.05
2022-09-15T02:23:23.745Z,14.93
2022-09-15T02:25:55.972Z,18.13
2022-09-15T02:28:30.320Z,17.60
2022-09-15T02:31:01.088Z,17.27
2022-09-15T02:33:35.203Z,12.27
2022-09-15T02:36:04.977Z,13.02
2022-09-15T02:38:39.031Z,13.38
2022-09-15T02:41:06.825Z,14.35
2022-09-15T02:43:34.460Z,12.80
2022-09-15T02:46:07.029Z,14.65
2022-09-15T02:48:35.125Z,21.77
2022-09-15T02:51:02.715Z,16.70
2022-09-15T02:53:30.763Z,14.25
2022-09-15T02:55:58.955Z,16.48
2022-09-15T02:58:26.482Z,14.80
2022-09-15T03:00:54.259Z,17.02
2022-09-15T03:03:23.332Z,15.45
2022-09-15T03:05:51.018Z,17.48
2022-09-15T03:08:18.938Z,14.13
2022-09-15T03:10:46.509Z,12.27
2022-09-15T03:13:14.055Z,15.88
2022-09-15T03:15:42.667Z,13.70
2022-09-15T03:18:11.115Z,12.45
2022-09-15T03:20:40.160Z,15.93
2022-09-15T03:23:08.649Z,14.35
2022-09-15T03:25:36.785Z,14.88
2022-09-15T03:28:04.375Z,14.05
2022-09-15T03:30:32.236Z,13.57
2022-09-15T03:32:59.795Z,13.93
2022-09-15T03:35:27.341Z,14.20
2022-09-15T03:37:56.822Z,13.25
2022-09-15T03:40:27.044Z,15.52
2022-09-15T03:42:54.814Z,11.77
2022-09-15T03:45:22.509Z,16.80
2022-09-15T03:47:50.125Z,16.27
2022-09-15T03:50:18.025Z,14.40
2022-09-15T03:52:45.918Z,13.38
2022-09-15T03:55:15.284Z,15.30
2022-09-15T03:57:44.495Z,14.85
2022-09-15T04:00:13.534Z,16.85
2022-09-15T04:02:41.298Z,16.02
2022-09-15T04:05:09.947Z,18.33
2022-09-15T04:07:38.262Z,13.70
2022-09-15T04:10:06.635Z,18.50
2022-09-15T04:12:36.547Z,14.73
2022-09-15T04:15:04.910Z,15.65
2022-09-15T04:17:33.252Z,17.75
2022-09-15T04:20:01.011Z,17.00
2022-09-15T04:22:30.789Z,13.02
2022-09-15T04:24:58.408Z,16.90
2022-09-15T04:27:26.156Z,17.98
2022-09-15T04:29:55.601Z,18.13
2022-09-15T04:32:23.386Z,17.70
2022-09-15T04:34:51.038Z,15.57
2022-09-15T04:37:18.687Z,13.48
2022-09-15T04:39:46.400Z,14.02
2022-09-15T04:42:13.993Z,13.93
2022-09-15T04:44:42.153Z,17.20
2022-09-15T04:47:11.253Z,14.70
2022-09-15T04:49:38.792Z,14.32
2022-09-15T04:52:09.718Z,14.35
2022-09-15T04:54:37.993Z,14.30
2022-09-15T04:57:06.055Z,13.43
2022-09-15T04:59:35.113Z,14.25
2022-09-15T05:02:03.210Z,15.40
2022-09-15T05:04:32.799Z,16.48
2022-09-15T05:07:00.637Z,13.95
2022-09-15T05:09:28.414Z,16.10
2022-09-15T05:11:56.115Z,14.27
2022-09-15T05:14:23.938Z,13.13
2022-09-15T05:16:51.864Z,11.98
2022-09-15T05:19:19.466Z,16.35
2022-09-15T05:21:48.622Z,14.35
2022-09-15T05:24:16.236Z,14.52
2022-09-15T05:26:43.796Z,14.73
2022-09-15T05:29:11.577Z,17.60
2022-09-15T05:31:39.493Z,15.13
2022-09-15T05:34:07.799Z,13.57
2022-09-15T05:36:35.751Z,13.50
2022-09-15T05:39:04.731Z,12.93
2022-09-15T05:41:32.476Z,13.15
2022-09-15T05:44:00.198Z,16.05
2022-09-15T05:46:28.713Z,13.95
2022-09-15T05:48:58.585Z,15.60
2022-09-15T05:51:26.406Z,12.93
2022-09-15T05:53:54.010Z,13.13
2022-09-15T05:56:23.264Z,13.02
2022-09-15T05:58:51.173Z,15.52
2022-09-15T06:01:20.699Z,13.30
2022-09-15T06:03:48.589Z,10.43
2022-09-15T06:06:16.715Z,12.63
2022-09-15T06:08:48.115Z,11.98
2022-09-15T06:11:18.056Z,12.32
2022-09-15T06:13:47.798Z,10.88
2022-09-15T06:16:18.562Z,15.45
2022-09-15T06:18:47.417Z,14.38
2022-09-15T06:21:17.950Z,12.20
2022-09-15T06:23:50.045Z,11.85
2022-09-15T06:26:19.263Z,12.68
2022-09-15T06:28:50.730Z,12.63
2022-09-15T06:31:19.686Z,15.30
2022-09-15T06:33:50.962Z,14.50
2022-09-15T06:36:20.070Z,15.55
2022-09-15T06:38:48.369Z,15.27
2022-09-15T06:41:16.695Z,18.67
2022-09-15T06:43:44.871Z,18.15
2022-09-15T06:46:15.505Z,16.50
2022-09-15T06:48:47.563Z,15.45
2022-09-15T06:51:18.068Z,16.17
2022-09-15T06:53:46.628Z,11.32
2022-09-15T06:56:16.167Z,13.63
2022-09-15T06:58:47.249Z,16.20
2022-09-15T07:01:20.876Z,12.05
2022-09-15T07:03:48.936Z,13.15
2022-09-15T07:06:16.616Z,18.65
2022-09-15T07:08:44.635Z,15.15
2022-09-15T07:11:13.583Z,13.48
2022-09-15T07:13:41.629Z,12.30
2022-09-15T07:16:12.052Z,13.60
2022-09-15T07:18:43.444Z,14.35
2022-09-15T07:21:14.534Z,15.82
2022-09-15T07:23:42.912Z,16.75
2022-09-15T07:26:12.531Z,19.83
2022-09-15T07:28:42.696Z,13.85
2022-09-15T07:31:13.371Z,11.90
2022-09-15T07:33:42.770Z,11.35
2022-09-15T07:36:11.057Z,15.18
2022-09-15T07:38:40.289Z,12.68
2022-09-15T07:41:10.194Z,13.07
2022-09-15T07:43:38.085Z,16.17
2022-09-15T07:46:07.481Z,12.38
2022-09-15T07:48:36.853Z,11.35
2022-09-15T07:51:06.110Z,15.57
2022-09-15T07:53:33.791Z,13.55
2022-09-15T07:56:01.494Z,14.95
2022-09-15T07:58:29.455Z,13.25
2022-09-15T08:01:02.674Z,12.00
2022-09-15T08:03:30.466Z,15.20
2022-09-15T08:05:58.854Z,13.10
2022-09-15T08:08:28.803Z,14.57
2022-09-15T08:10:58.093Z,14.55
2022-09-15T08:13:26.720Z,11.95
2022-09-15T08:15:54.406Z,16.15
2022-09-15T08:18:22.092Z,12.32
2022-09-15T08:20:49.684Z,11.07
2022-09-15T08:23:17.433Z,15.93
2022-09-15T08:25:46.384Z,14.73
2022-09-15T08:28:14.156Z,14.05
2022-09-15T08:30:41.953Z,14.77
2022-09-15T08:33:09.722Z,15.18
2022-09-15T08:35:37.726Z,16.67
2022-09-15T08:38:05.383Z,15.05
2022-09-15T08:40:37.666Z,12.10
2022-09-15T08:43:18.967Z,11.55
2022-09-15T08:45:52.843Z,17.08
2022-09-15T08:48:27.728Z,14.88
2022-09-15T08:50:58.107Z,20.55
2022-09-15T08:53:29.739Z,13.55
2022-09-15T08:56:00.353Z,14.85
2022-09-15T08:58:32.284Z,13.63
2022-09-15T09:01:05.321Z,18.05
2022-09-15T09:03:49.340Z,14.93
2022-09-15T09:06:29.447Z,13.32
2022-09-15T09:09:18.526Z,12.23
2022-09-15T09:12:05.226Z,14.38
2022-09-15T09:14:47.079Z,13.02
2022-09-15T09:17:29.120Z,13.15
2022-09-15T09:20:20.611Z,15.68
2022-09-15T09:22:50.959Z,16.70
2022-09-15T09:25:27.704Z,17.90
2022-09-15T09:27:57.042Z,20.60
2022-09-15T09:30:31.170Z,12.48
2022-09-15T09:33:14.603Z,18.10
2022-09-15T09:35:44.715Z,13.80
2022-09-15T09:38:20.291Z,15.43
2022-09-15T09:40:49.846Z,13.38
2022-09-15T09:43:17.798Z,12.70
2022-09-15T09:45:47.094Z,17.00
2022-09-15T09:48:19.096Z,13.93
2022-09-15T09:50:47.355Z,11.90
2022-09-15T09:53:24.165Z,14.35
2022-09-15T09:55:52.385Z,18.85
2022-09-15T09:58:22.221Z,25.52
2022-09-15T10:00:51.919Z,14.27
2022-09-15T10:03:21.418Z,15.73
2022-09-15T10:06:03.625Z,15.88
2022-09-15T10:08:31.844Z,15.00
2022-09-15T10:11:04.235Z,15.30
2022-09-15T10:13:34.533Z,15.73
2022-09-15T10:16:06.838Z,16.15
2022-09-15T10:18:36.888Z,20.17
2022-09-15T10:21:08.457Z,15.07
2022-09-15T10:23:36.533Z,14.75
2022-09-15T10:26:22.603Z,17.75
2022-09-15T10:29:15.406Z,14.02
2022-09-15T10:31:45.935Z,12.95
2022-09-15T10:34:30.396Z,15.20
2022-09-15T10:37:08.330Z,13.60
2022-09-15T10:39:51.574Z,16.35
2022-09-15T10:42:49.162Z,16.05
2022-09-15T10:45:24.749Z,18.48
2022-09-15T10:48:20.100Z,20.02
2022-09-15T10:51:03.758Z,18.20
2022-09-15T10:53:58.058Z,15.15
2022-09-15T10:56:30.543Z,17.02
2022-09-15T10:59:20.632Z,19.90
2022-09-15T11:02:03.147Z,17.63
2022-09-15T11:04:44.787Z,15.73
2022-09-15T11:07:19.809Z,19.58
2022-09-15T11:09:54.277Z,15.27
2022-09-15T11:12:31.423Z,15.48
2022-09-15T11:15:17.026Z,15.98
2022-09-15T11:17:58.917Z,13.93
2022-09-15T11:21:01.910Z,14.35
2022-09-15T11:23:34.644Z,13.25
2022-09-15T11:26:09.089Z,14.73
2022-09-15T11:28:42.959Z,10.82
2022-09-15T11:31:17.115Z,29.25
2022-09-15T11:33:48.940Z,15.55
2022-09-15T11:36:23.094Z,16.02
2022-09-15T11:38:56.721Z,15.52
2022-09-15T11:41:28.623Z,17.70
2022-09-15T11:44:07.125Z,19.30
2022-09-15T11:46:50.938Z,17.13
2022-09-15T11:49:23.356Z,18.90
2022-09-15T11:51:59.008Z,17.48
2022-09-15T11:54:34.451Z,16.23
2022-09-15T11:57:02.424Z,17.48
2022-09-15T11:59:38.871Z,17.02
2022-09-15T12:02:17.078Z,14.48
2022-09-15T12:05:02.058Z,14.93
2022-09-15T12:07:36.194Z,14.50
2022-09-15T12:10:15.164Z,14.13
2022-09-15T12:12:44.629Z,16.40
2022-09-15T12:15:17.958Z,15.63
2022-09-15T12:17:52.132Z,14.32
2022-09-15T12:20:25.185Z,17.23
2022-09-15T12:23:02.561Z,12.73
2022-09-15T12:25:40.002Z,15.30
2022-09-15T12:28:37.055Z,14.70
2022-09-15T12:31:13.655Z,17.63
2022-09-15T12:33:45.786Z,15.93
2022-09-15T12:36:41.107Z,17.70
2022-09-15T12:39:29.886Z,14.00
2022-09-15T12:42:07.710Z,18.45
2022-09-15T12:44:37.161Z,14.77
2022-09-15T12:47:17.370Z,14.98
2022-09-15T12:49:48.360Z,14.32
2022-09-15T12:52:16.861Z,17.48
2022-09-15T12:54:53.561Z,21.67
2022-09-15T12:57:26.581Z,19.85
2022-09-15T13:00:33.802Z,17.77
2022-09-15T13:03:02.204Z,18.95
2022-09-15T13:06:06.709Z,14.25
2022-09-15T13:09:21.609Z,21.25
2022-09-15T13:11:53.949Z,17.50
2022-09-15T13:14:27.489Z,19.65
2022-09-15T13:17:01.151Z,12.93
2022-09-15T13:19:37.755Z,19.42
2022-09-15T13:22:16.919Z,16.13
2022-09-15T13:24:48.602Z,14.10
2022-09-15T13:27:21.646Z,13.80
2022-09-15T13:29:57.933Z,14.95
2022-09-15T13:32:35.987Z,12.02
2022-09-15T13:35:32.305Z,17.65
2022-09-15T13:38:38.198Z,15.13
2022-09-15T13:41:40.740Z,14.57
2022-09-15T13:44:37.971Z,13.18
2022-09-15T13:47:35.102Z,24.25
2022-09-15T13:50:14.450Z,17.05
2022-09-15T13:53:12.348Z,13.95
2022-09-15T13:55:43.362Z,19.80
2022-09-15T14:01:05.834Z,13.52
2022-09-15T14:03:42.031Z,19.15
2022-09-15T14:06:13.616Z,17.77
2022-09-15T14:08:44.086Z,18.38
2022-09-15T14:13:46.318Z,21.50
2022-09-15T14:16:30.555Z,19.52
2022-09-15T14:19:00.753Z,19.55
2022-09-15T14:21:30.890Z,22.20
2022-09-15T14:24:02.795Z,22.95
2022-09-15T14:26:33.828Z,18.58
2022-09-15T14:29:03.659Z,25.13
2022-09-15T14:31:34.537Z,30.52
2022-09-15T14:34:06.458Z,19.67
2022-09-15T14:36:34.941Z,22.25
2022-09-15T14:39:18.515Z,22.52
2022-09-15T14:41:47.380Z,21.00
2022-09-15T14:47:17.828Z,28.10
2022-09-15T14:49:47.501Z,25.75
2022-09-15T14:52:24.503Z,25.52
2022-09-15T14:54:57.773Z,26.38
2022-09-15T14:57:31.111Z,27.67
2022-09-15T15:00:06.814Z,36.22
2022-09-15T15:02:48.723Z,21.50
2022-09-15T15:05:22.359Z,31.08
2022-09-15T15:07:51.949Z,27.27
2022-09-15T15:10:26.079Z,32.78
2022-09-15T15:12:59.146Z,34.83
2022-09-15T15:15:28.398Z,35.80
2022-09-15T15:17:57.501Z,22.50
2022-09-15T15:20:28.352Z,20.48
2022-09-15T15:23:14.975Z,22.65
2022-09-15T15:25:43.746Z,35.85
2022-09-15T15:28:30.614Z,34.40
2022-09-15T15:31:15.759Z,40.28
2022-09-15T15:33:48.526Z,44.03
2022-09-15T15:36:22.015Z,25.70
2022-09-15T15:38:52.935Z,26.95
2022-09-15T15:41:23.253Z,31.67
2022-09-15T15:44:02.509Z,33.10
2022-09-15T15:46:47.748Z,23.60
2022-09-15T15:49:15.826Z,30.52
2022-09-15T15:51:44.951Z,32.65
2022-09-15T15:54:13.531Z,27.85
2022-09-15T15:56:41.236Z,35.05
2022-09-15T15:59:11.783Z,30.23
2022-09-15T16:01:40.034Z,35.95
2022-09-15T16:04:07.795Z,27.80
2022-09-15T16:06:36.217Z,29.55
2022-09-15T16:09:05.747Z,30.02
2022-09-15T16:11:34.711Z,34.88
2022-09-15T16:14:02.374Z,30.52
2022-09-15T16:16:31.624Z,33.78
2022-09-15T16:18:59.520Z,35.22
2022-09-15T16:21:32.360Z,36.53
2022-09-15T16:24:00.558Z,39.63
2022-09-15T16:26:29.631Z,43.38
2022-09-15T16:28:58.050Z,46.63
2022-09-15T16:31:25.735Z,49.40
2022-09-15T16:33:53.405Z,61.45
2022-09-15T16:36:21.222Z,46.72
2022-09-15T16:38:49.707Z,45.83
2022-09-15T16:41:18.908Z,65.65
2022-09-15T16:43:48.253Z,70.88
2022-09-15T16:46:16.399Z,59.67
2022-09-15T16:48:44.396Z,58.10
2022-09-15T16:51:28.001Z,51.00
2022-09-15T16:53:57.483Z,64.45
2022-09-15T16:56:25.767Z,53.72
2022-09-15T16:58:59.831Z,48.75
2022-09-15T17:01:28.721Z,44.60
2022-09-15T17:03:57.074Z,41.05
2022-09-15T17:06:24.980Z,36.70
2022-09-15T17:08:54.851Z,30.95
2022-09-15T17:11:23.190Z,37.30
2022-09-15T17:13:51.336Z,46.13
2022-09-15T17:16:20.720Z,35.45
2022-09-15T17:18:49.586Z,33.70
2022-09-15T17:21:18.187Z,40.50
2022-09-15T17:23:48.446Z,36.05
2022-09-15T17:26:19.690Z,36.55
2022-09-15T17:28:48.363Z,41.95
2022-09-15T17:31:18.277Z,46.40
2022-09-15T17:33:49.249Z,64.55
2022-09-15T17:36:17.709Z,42.28
2022-09-15T17:38:45.488Z,40.53
2022-09-15T17:41:14.879Z,43.70
2022-09-15T17:43:42.893Z,46.58
2022-09-15T17:46:11.260Z,42.47
2022-09-15T17:48:39.715Z,33.10
2022-09-15T17:51:13.107Z,36.67
2022-09-15T17:53:41.601Z,35.92
2022-09-15T17:56:09.273Z,38.67
2022-09-15T17:58:37.100Z,36.42
2022-09-15T18:01:05.043Z,38.35
2022-09-15T18:03:34.182Z,33.60
2022-09-15T18:06:03.839Z,36.35
2022-09-15T18:08:33.701Z,33.97
2022-09-15T18:11:01.987Z,33.88
2022-09-15T20:22:54.050Z,22.98
2022-09-15T20:25:23.231Z,22.52
2022-09-15T20:27:51.527Z,24.40
2022-09-15T20:30:20.042Z,21.38
2022-09-15T20:32:47.769Z,20.30
2022-09-15T20:35:16.341Z,23.33
2022-09-15T20:37:44.807Z,21.60
2022-09-15T20:40:15.486Z,20.48
2022-09-15T20:42:43.797Z,19.58
2022-09-15T20:45:12.623Z,17.48
2022-09-15T20:47:42.242Z,14.27
2022-09-15T20:50:10.610Z,19.65
2022-09-15T20:52:38.989Z,17.02
2022-09-15T20:55:07.711Z,24.27
2022-09-15T20:57:37.574Z,17.50
2022-09-15T21:00:06.888Z,17.80
2022-09-15T21:02:36.648Z,15.27
2022-09-15T21:05:05.431Z,18.13
2022-09-15T21:07:33.882Z,17.35
2022-09-15T21:10:01.928Z,16.20
2022-09-15T21:12:29.914Z,18.02
2022-09-15T21:14:59.349Z,14.25
2022-09-15T21:17:27.221Z,17.13
2022-09-15T21:19:55.276Z,17.45
2022-09-15T21:22:23.352Z,20.90
2022-09-15T21:24:50.995Z,16.73
2022-09-15T21:27:18.639Z,16.83
2022-09-15T21:29:46.642Z,17.50
2022-09-15T21:32:15.728Z,19.55
2022-09-15T21:34:43.858Z,16.98
2022-09-15T21:37:11.680Z,15.30
2022-09-15T21:39:40.123Z,16.70
2022-09-15T21:42:07.943Z,16.17
2022-09-15T21:44:35.775Z,17.15
2022-09-15T21:47:03.708Z,15.40
2022-09-15T21:49:32.888Z,16.80
2022-09-15T21:52:00.909Z,16.15
2022-09-15T21:54:28.536Z,16.35
2022-09-15T21:56:56.150Z,19.52
2022-09-15T21:59:24.176Z,18.80
2022-09-15T22:01:51.910Z,18.63
2022-09-15T22:04:19.654Z,20.17
2022-09-15T22:06:49.001Z,17.02
2022-09-15T22:09:18.708Z,18.27
2022-09-15T22:11:47.061Z,15.77
2022-09-15T22:14:16.097Z,17.92
2022-09-15T22:16:44.167Z,16.10
2022-09-15T22:19:12.846Z,18.67
2022-09-15T22:21:41.358Z,16.00
2022-09-15T22:24:12.673Z,18.05
2022-09-15T22:26:42.084Z,15.88
2022-09-15T22:29:10.419Z,15.52
2022-09-15T22:31:38.525Z,14.50
2022-09-15T22:34:06.424Z,17.98
2022-09-15T22:36:34.725Z,17.95
2022-09-15T22:39:03.442Z,19.52
2022-09-15T22:41:34.096Z,15.15
2022-09-15T22:44:02.554Z,13.48
2022-09-15T22:46:30.662Z,13.88
2022-09-15T22:48:58.518Z,18.48
2022-09-15T22:51:26.243Z,16.05
2022-09-15T22:53:54.534Z,16.67
2022-09-15T22:56:22.670Z,19.75
2022-09-15T22:58:52.247Z,15.88
2022-09-15T23:01:22.248Z,16.55
2022-09-15T23:03:50.709Z,15.55
2022-09-15T23:06:18.483Z,15.65
2022-09-15T23:08:50.618Z,13.48
2022-09-15T23:11:18.921Z,14.27
2022-09-15T23:13:47.790Z,15.07
2022-09-15T23:16:17.602Z,12.18
2022-09-15T23:18:46.739Z,14.88
2022-09-15T23:21:15.023Z,16.70
2022-09-15T23:23:44.439Z,16.50
2022-09-15T23:26:13.597Z,13.10
2022-09-15T23:28:41.383Z,13.68
2022-09-15T23:31:11.771Z,15.15
2022-09-15T23:33:40.945Z,13.30
2022-09-15T23:36:11.747Z,13.60
2022-09-15T23:38:41.021Z,15.77
2022-09-15T23:41:09.627Z,14.10
2022-09-15T23:43:37.702Z,13.05
2022-09-15T23:46:06.381Z,11.30
2022-09-15T23:48:34.370Z,11.57
2022-09-15T23:51:07.416Z,11.57
2022-09-15T23:53:35.758Z,15.20
2022-09-15T23:56:04.055Z,13.45
2022-09-15T23:58:31.946Z,13.23
